sensor_id;sensor_type;location;lat;lon;timestamp;pressure;altitude;pressure_sealevel;temperature;humidity
20620;BME280;10469;42.720;23.252;2022-10-16T00:00:42;95523.75;;;8.77;100.00
20620;BME280;10469;42.720;23.252;2022-10-16T00:03:09;95538.59;;;8.60;100.00
20620;BME280;10469;42.720;23.252;2022-10-16T00:05:42;95535.72;;;8.61;100.00
20620;BME280;10469;42.720;23.252;2022-10-16T00:08:08;95532.84;;;8.49;100.00
20620;BME280;10469;42.720;23.252;2022-10-16T00:10:35;95548.25;;;8.21;100.00
20620;BME280;10469;42.720;23.252;2022-10-16T00:13:02;95545.78;;;8.33;100.00
20620;BME280;10469;42.720;23.252;2022-10-16T00:15:28;95550.50;;;8.24;100.00
20620;BME280;10469;42.720;23.252;2022-10-16T00:17:53;95536.13;;;8.05;100.00
20620;BME280;10469;42.720;23.252;2022-10-16T00:20:19;95528.31;;;8.03;100.00
20620;BME280;10469;42.720;23.252;2022-10-16T00:22:45;95556.44;;;8.06;100.00
20620;BME280;10469;42.720;23.252;2022-10-16T00:25:10;95558.50;;;7.91;100.00
20620;BME280;10469;42.720;23.252;2022-10-16T00:27:36;95558.69;;;7.89;100.00
20620;BME280;10469;42.720;23.252;2022-10-16T00:30:02;95565.88;;;7.89;100.00
20620;BME280;10469;42.720;23.252;2022-10-16T00:32:28;95562.81;;;7.92;100.00
20620;BME280;10469;42.720;23.252;2022-10-16T00:34:54;95568.53;;;7.89;100.00
20620;BME280;10469;42.720;23.252;2022-10-16T00:37:20;95557.22;;;7.80;100.00
20620;BME280;10469;42.720;23.252;2022-10-16T00:39:46;95562.16;;;7.76;100.00
20620;BME280;10469;42.720;23.252;2022-10-16T00:42:17;95565.66;;;7.84;100.00
20620;BME280;10469;42.720;23.252;2022-10-16T00:44:52;95560.97;;;7.99;100.00
20620;BME280;10469;42.720;23.252;2022-10-16T00:47:30;95561.34;;;7.83;100.00
20620;BME280;10469;42.720;23.252;2022-10-16T00:52:30;95558.69;;;7.83;100.00
20620;BME280;10469;42.720;23.252;2022-10-16T00:54:56;95548.00;;;7.83;100.00
20620;BME280;10469;42.720;23.252;2022-10-16T00:57:23;95557.88;;;8.02;100.00
20620;BME280;10469;42.720;23.252;2022-10-16T00:59:49;95565.06;;;8.01;100.00
20620;BME280;10469;42.720;23.252;2022-10-16T01:02:16;95554.59;;;8.00;100.00
20620;BME280;10469;42.720;23.252;2022-10-16T01:04:50;95543.91;;;8.07;100.00
20620;BME280;10469;42.720;23.252;2022-10-16T01:12:42;95564.75;;;8.38;100.00
20620;BME280;10469;42.720;23.252;2022-10-16T01:15:17;95560.13;;;8.12;100.00
20620;BME280;10469;42.720;23.252;2022-10-16T01:18:11;95565.28;;;8.20;100.00
20620;BME280;10469;42.720;23.252;2022-10-16T01:27:09;95541.44;;;7.92;100.00
20620;BME280;10469;42.720;23.252;2022-10-16T01:30:07;95553.16;;;8.11;100.00
20620;BME280;10469;42.720;23.252;2022-10-16T01:32:42;95554.59;;;8.07;100.00
20620;BME280;10469;42.720;23.252;2022-10-16T01:35:22;95559.91;;;7.93;100.00
20620;BME280;10469;42.720;23.252;2022-10-16T01:38:10;95569.19;;;7.91;100.00
20620;BME280;10469;42.720;23.252;2022-10-16T01:40:45;95558.44;;;7.64;100.00
20620;BME280;10469;42.720;23.252;2022-10-16T01:43:19;95557.38;;;7.59;100.00
20620;BME280;10469;42.720;23.252;2022-10-16T01:45:47;95557.59;;;7.57;100.00
20620;BME280;10469;42.720;23.252;2022-10-16T01:48:15;95569.31;;;7.56;100.00
20620;BME280;10469;42.720;23.252;2022-10-16T01:50:44;95573.66;;;7.70;100.00
20620;BME280;10469;42.720;23.252;2022-10-16T01:53:15;95568.28;;;7.57;100.00
20620;BME280;10469;42.720;23.252;2022-10-16T01:55:44;95569.31;;;7.63;100.00
20620;BME280;10469;42.720;23.252;2022-10-16T01:58:13;95561.50;;;7.61;100.00
20620;BME280;10469;42.720;23.252;2022-10-16T02:00:42;95563.88;;;7.36;100.00
20620;BME280;10469;42.720;23.252;2022-10-16T02:03:11;95577.00;;;7.38;100.00
20620;BME280;10469;42.720;23.252;2022-10-16T02:05:58;95573.09;;;7.34;100.00
20620;BME280;10469;42.720;23.252;2022-10-16T02:08:26;95581.53;;;7.37;100.00
20620;BME280;10469;42.720;23.252;2022-10-16T02:10:57;95577.75;;;7.18;100.00
20620;BME280;10469;42.720;23.252;2022-10-16T02:13:36;95591.75;;;7.27;100.00
20620;BME280;10469;42.720;23.252;2022-10-16T02:16:03;95580.44;;;7.18;100.00
20620;BME280;10469;42.720;23.252;2022-10-16T02:18:28;95598.88;;;7.13;100.00
20620;BME280;10469;42.720;23.252;2022-10-16T02:21:02;95592.84;;;6.98;100.00
20620;BME280;10469;42.720;23.252;2022-10-16T02:23:37;95598.66;;;7.15;100.00
20620;BME280;10469;42.720;23.252;2022-10-16T02:26:09;95590.59;;;7.01;100.00
20620;BME280;10469;42.720;23.252;2022-10-16T02:28:42;95591.63;;;7.00;100.00
20620;BME280;10469;42.720;23.252;2022-10-16T02:31:13;95605.41;;;7.04;100.00
20620;BME280;10469;42.720;23.252;2022-10-16T02:33:42;95611.41;;;7.13;100.00
20620;BME280;10469;42.720;23.252;2022-10-16T02:36:09;95597.78;;;7.01;100.00
20620;BME280;10469;42.720;23.252;2022-10-16T02:38:36;95593.94;;;7.10;100.00
20620;BME280;10469;42.720;23.252;2022-10-16T02:41:03;95592.69;;;7.06;100.00
20620;BME280;10469;42.720;23.252;2022-10-16T02:43:29;95598.44;;;7.10;100.00
20620;BME280;10469;42.720;23.252;2022-10-16T02:45:55;95603.56;;;7.11;100.00
20620;BME280;10469;42.720;23.252;2022-10-16T02:48:21;95605.66;;;7.16;100.00
20620;BME280;10469;42.720;23.252;2022-10-16T02:50:46;95614.31;;;7.24;100.00
20620;BME280;10469;42.720;23.252;2022-10-16T02:53:12;95620.13;;;7.35;100.00
20620;BME280;10469;42.720;23.252;2022-10-16T02:55:37;95624.00;;;7.32;100.00
20620;BME280;10469;42.720;23.252;2022-10-16T02:58:03;95621.69;;;7.22;100.00
20620;BME280;10469;42.720;23.252;2022-10-16T03:00:28;95618.97;;;7.16;100.00
20620;BME280;10469;42.720;23.252;2022-10-16T03:02:54;95617.41;;;6.93;100.00
20620;BME280;10469;42.720;23.252;2022-10-16T03:05:19;95606.31;;;6.90;100.00
20620;BME280;10469;42.720;23.252;2022-10-16T03:07:45;95620.97;;;7.07;100.00
20620;BME280;10469;42.720;23.252;2022-10-16T03:10:11;95617.88;;;7.03;100.00
20620;BME280;10469;42.720;23.252;2022-10-16T03:12:36;95620.72;;;6.95;100.00
20620;BME280;10469;42.720;23.252;2022-10-16T03:15:02;95624.97;;;6.90;100.00
20620;BME280;10469;42.720;23.252;2022-10-16T03:17:28;95625.78;;;6.84;100.00
20620;BME280;10469;42.720;23.252;2022-10-16T03:19:53;95630.91;;;6.85;100.00
20620;BME280;10469;42.720;23.252;2022-10-16T03:22:19;95625.53;;;6.78;100.00
20620;BME280;10469;42.720;23.252;2022-10-16T03:24:44;95633.19;;;6.88;100.00
20620;BME280;10469;42.720;23.252;2022-10-16T03:27:10;95637.59;;;6.74;100.00
20620;BME280;10469;42.720;23.252;2022-10-16T03:29:35;95617.16;;;6.53;100.00
20620;BME280;10469;42.720;23.252;2022-10-16T03:32:01;95625.34;;;6.52;100.00
20620;BME280;10469;42.720;23.252;2022-10-16T03:34:27;95636.19;;;6.50;100.00
20620;BME280;10469;42.720;23.252;2022-10-16T03:36:53;95641.56;;;6.57;100.00
20620;BME280;10469;42.720;23.252;2022-10-16T03:39:19;95638.13;;;6.63;100.00
20620;BME280;10469;42.720;23.252;2022-10-16T03:41:45;95628.94;;;6.66;100.00
20620;BME280;10469;42.720;23.252;2022-10-16T03:44:12;95620.16;;;6.72;100.00
20620;BME280;10469;42.720;23.252;2022-10-16T03:46:37;95626.31;;;6.72;100.00
20620;BME280;10469;42.720;23.252;2022-10-16T03:49:03;95626.31;;;6.72;100.00
20620;BME280;10469;42.720;23.252;2022-10-16T03:51:28;95629.16;;;6.71;100.00
20620;BME280;10469;42.720;23.252;2022-10-16T03:53:54;95624.91;;;6.48;100.00
20620;BME280;10469;42.720;23.252;2022-10-16T03:56:19;95625.19;;;6.60;100.00
20620;BME280;10469;42.720;23.252;2022-10-16T03:58:45;95632.31;;;6.53;100.00
20620;BME280;10469;42.720;23.252;2022-10-16T04:01:10;95623.56;;;6.38;100.00
20620;BME280;10469;42.720;23.252;2022-10-16T04:03:36;95622.53;;;6.39;100.00
20620;BME280;10469;42.720;23.252;2022-10-16T04:06:01;95635.56;;;6.48;100.00
20620;BME280;10469;42.720;23.252;2022-10-16T04:08:27;95620.88;;;6.31;100.00
20620;BME280;10469;42.720;23.252;2022-10-16T04:10:53;95626.06;;;6.39;100.00
20620;BME280;10469;42.720;23.252;2022-10-16T04:13:18;95631.94;;;6.35;100.00
20620;BME280;10469;42.720;23.252;2022-10-16T04:15:45;95635.63;;;6.34;100.00
20620;BME280;10469;42.720;23.252;2022-10-16T04:18:11;95621.38;;;6.20;100.00
20620;BME280;10469;42.720;23.252;2022-10-16T04:20:37;95626.00;;;6.11;100.00
20620;BME280;10469;42.720;23.252;2022-10-16T04:23:03;95625.41;;;6.16;100.00
20620;BME280;10469;42.720;23.252;2022-10-16T04:25:30;95631.56;;;6.16;100.00
20620;BME280;10469;42.720;23.252;2022-10-16T04:27:55;95641.47;;;6.01;100.00
20620;BME280;10469;42.720;23.252;2022-10-16T04:30:22;95624.97;;;6.12;100.00
20620;BME280;10469;42.720;23.252;2022-10-16T04:32:49;95638.16;;;6.20;100.00
20620;BME280;10469;42.720;23.252;2022-10-16T04:35:15;95650.59;;;6.13;100.00
20620;BME280;10469;42.720;23.252;2022-10-16T04:37:41;95649.50;;;6.29;100.00
20620;BME280;10469;42.720;23.252;2022-10-16T04:40:07;95641.97;;;6.33;100.00
20620;BME280;10469;42.720;23.252;2022-10-16T04:42:32;95631.88;;;6.28;100.00
20620;BME280;10469;42.720;23.252;2022-10-16T04:44:58;95640.81;;;6.42;100.00
20620;BME280;10469;42.720;23.252;2022-10-16T04:47:24;95649.56;;;6.57;100.00
20620;BME280;10469;42.720;23.252;2022-10-16T04:49:49;95663.19;;;6.97;100.00
20620;BME280;10469;42.720;23.252;2022-10-16T04:52:15;95645.13;;;7.34;100.00
20620;BME280;10469;42.720;23.252;2022-10-16T04:54:40;95660.66;;;7.58;100.00
20620;BME280;10469;42.720;23.252;2022-10-16T04:57:06;95663.34;;;8.26;100.00
20620;BME280;10469;42.720;23.252;2022-10-16T04:59:32;95648.41;;;8.78;100.00
20620;BME280;10469;42.720;23.252;2022-10-16T05:01:57;95656.50;;;9.56;100.00
20620;BME280;10469;42.720;23.252;2022-10-16T05:04:23;95647.81;;;11.00;100.00
20620;BME280;10469;42.720;23.252;2022-10-16T05:06:49;95647.91;;;12.11;100.00
20620;BME280;10469;42.720;23.252;2022-10-16T05:09:14;95637.69;;;12.01;100.00
20620;BME280;10469;42.720;23.252;2022-10-16T05:11:40;95653.84;;;12.85;100.00
20620;BME280;10469;42.720;23.252;2022-10-16T05:14:05;95647.44;;;13.68;100.00
20620;BME280;10469;42.720;23.252;2022-10-16T05:16:33;95638.50;;;14.48;100.00
20620;BME280;10469;42.720;23.252;2022-10-16T05:18:59;95648.09;;;15.01;100.00
20620;BME280;10469;42.720;23.252;2022-10-16T05:21:25;95639.59;;;15.82;100.00
20620;BME280;10469;42.720;23.252;2022-10-16T05:23:50;95648.03;;;16.56;100.00
20620;BME280;10469;42.720;23.252;2022-10-16T05:26:16;95644.78;;;17.50;96.00
20620;BME280;10469;42.720;23.252;2022-10-16T05:28:41;95647.06;;;18.21;87.18
20620;BME280;10469;42.720;23.252;2022-10-16T05:31:08;95646.53;;;18.19;81.18
20620;BME280;10469;42.720;23.252;2022-10-16T05:33:34;95652.97;;;17.61;81.16
20620;BME280;10469;42.720;23.252;2022-10-16T05:36:05;95661.22;;;17.39;80.91
20620;BME280;10469;42.720;23.252;2022-10-16T05:38:31;95665.88;;;16.79;90.36
20620;BME280;10469;42.720;23.252;2022-10-16T05:40:57;95668.44;;;14.75;100.00
20620;BME280;10469;42.720;23.252;2022-10-16T05:43:23;95658.59;;;13.13;100.00
20620;BME280;10469;42.720;23.252;2022-10-16T05:48:25;95670.63;;;13.10;100.00
20620;BME280;10469;42.720;23.252;2022-10-16T05:51:03;95671.75;;;14.08;100.00
20620;BME280;10469;42.720;23.252;2022-10-16T05:53:30;95680.22;;;14.00;100.00
20620;BME280;10469;42.720;23.252;2022-10-16T05:55:57;95669.94;;;13.73;100.00
20620;BME280;10469;42.720;23.252;2022-10-16T05:58:23;95684.34;;;13.91;100.00
20620;BME280;10469;42.720;23.252;2022-10-16T06:00:56;95693.28;;;14.60;100.00
20620;BME280;10469;42.720;23.252;2022-10-16T06:03:22;95682.41;;;14.43;100.00
20620;BME280;10469;42.720;23.252;2022-10-16T06:05:48;95687.41;;;13.59;100.00
20620;BME280;10469;42.720;23.252;2022-10-16T06:08:14;95692.38;;;14.14;100.00
20620;BME280;10469;42.720;23.252;2022-10-16T06:10:39;95688.91;;;16.54;100.00
20620;BME280;10469;42.720;23.252;2022-10-16T06:13:08;95701.31;;;16.28;99.85
20620;BME280;10469;42.720;23.252;2022-10-16T06:15:33;95702.63;;;15.65;100.00
20620;BME280;10469;42.720;23.252;2022-10-16T06:17:59;95695.06;;;16.06;100.00
20620;BME280;10469;42.720;23.252;2022-10-16T06:20:25;95701.75;;;14.80;100.00
20620;BME280;10469;42.720;23.252;2022-10-16T06:22:51;95711.53;;;15.49;100.00
20620;BME280;10469;42.720;23.252;2022-10-16T06:25:17;95710.13;;;16.41;98.01
20620;BME280;10469;42.720;23.252;2022-10-16T06:27:42;95714.03;;;15.67;100.00
20620;BME280;10469;42.720;23.252;2022-10-16T06:30:08;95714.75;;;15.46;100.00
20620;BME280;10469;42.720;23.252;2022-10-16T06:32:35;95702.09;;;15.01;100.00
20620;BME280;10469;42.720;23.252;2022-10-16T06:35:00;95710.50;;;15.16;100.00
20620;BME280;10469;42.720;23.252;2022-10-16T06:37:26;95721.38;;;18.05;89.56
20620;BME280;10469;42.720;23.252;2022-10-16T06:39:52;95729.13;;;17.49;86.72
20620;BME280;10469;42.720;23.252;2022-10-16T06:42:18;95726.09;;;18.98;80.30
20620;BME280;10469;42.720;23.252;2022-10-16T06:44:44;95718.19;;;18.76;82.56
20620;BME280;10469;42.720;23.252;2022-10-16T06:47:10;95737.53;;;16.27;97.77
20620;BME280;10469;42.720;23.252;2022-10-16T06:49:36;95734.38;;;18.61;84.18
20620;BME280;10469;42.720;23.252;2022-10-16T06:52:02;95739.13;;;17.80;82.89
20620;BME280;10469;42.720;23.252;2022-10-16T06:54:28;95731.06;;;19.42;75.29
20620;BME280;10469;42.720;23.252;2022-10-16T06:56:53;95734.44;;;17.71;83.38
20620;BME280;10469;42.720;23.252;2022-10-16T06:59:20;95738.16;;;17.27;86.20
20620;BME280;10469;42.720;23.252;2022-10-16T07:01:47;95746.53;;;17.90;90.51
20620;BME280;10469;42.720;23.252;2022-10-16T07:04:12;95736.38;;;17.43;87.26
20620;BME280;10469;42.720;23.252;2022-10-16T07:06:38;95741.28;;;18.26;76.25
20620;BME280;10469;42.720;23.252;2022-10-16T07:09:07;95754.13;;;17.88;86.81
20620;BME280;10469;42.720;23.252;2022-10-16T07:11:36;95748.69;;;16.97;90.17
20620;BME280;10469;42.720;23.252;2022-10-16T07:14:02;95756.09;;;17.07;86.14
20620;BME280;10469;42.720;23.252;2022-10-16T07:16:30;95754.97;;;19.24;78.14
20620;BME280;10469;42.720;23.252;2022-10-16T07:18:57;95753.28;;;18.93;77.13
20620;BME280;10469;42.720;23.252;2022-10-16T07:21:25;95732.91;;;18.33;80.38
20620;BME280;10469;42.720;23.252;2022-10-16T07:23:56;95748.88;;;18.82;77.55
20620;BME280;10469;42.720;23.252;2022-10-16T07:26:23;95744.84;;;18.26;73.72
20620;BME280;10469;42.720;23.252;2022-10-16T07:28:49;95745.50;;;18.49;81.30
20620;BME280;10469;42.720;23.252;2022-10-16T07:31:16;95749.00;;;20.09;69.66
20620;BME280;10469;42.720;23.252;2022-10-16T07:33:44;95759.41;;;19.61;69.00
20620;BME280;10469;42.720;23.252;2022-10-16T07:36:11;95754.78;;;18.63;80.46
20620;BME280;10469;42.720;23.252;2022-10-16T07:38:37;95748.78;;;19.80;65.36
20620;BME280;10469;42.720;23.252;2022-10-16T07:41:05;95753.69;;;19.63;66.20
20620;BME280;10469;42.720;23.252;2022-10-16T07:43:32;95750.00;;;18.86;70.69
20620;BME280;10469;42.720;23.252;2022-10-16T07:45:58;95761.22;;;17.62;82.72
20620;BME280;10469;42.720;23.252;2022-10-16T07:48:26;95749.78;;;19.08;77.28
20620;BME280;10469;42.720;23.252;2022-10-16T07:50:56;95757.59;;;18.78;78.10
20620;BME280;10469;42.720;23.252;2022-10-16T07:53:21;95732.41;;;19.34;71.42
20620;BME280;10469;42.720;23.252;2022-10-16T07:55:47;95748.91;;;21.59;59.41
20620;BME280;10469;42.720;23.252;2022-10-16T07:58:13;95756.47;;;23.02;51.12
20620;BME280;10469;42.720;23.252;2022-10-16T08:00:38;95747.97;;;23.80;47.26
20620;BME280;10469;42.720;23.252;2022-10-16T08:03:04;95768.44;;;21.27;55.10
20620;BME280;10469;42.720;23.252;2022-10-16T08:05:31;95763.88;;;21.17;57.64
20620;BME280;10469;42.720;23.252;2022-10-16T08:07:57;95754.47;;;23.08;51.72
20620;BME280;10469;42.720;23.252;2022-10-16T08:10:24;95740.41;;;24.04;47.15
20620;BME280;10469;42.720;23.252;2022-10-16T08:12:51;95751.31;;;25.69;42.25
20620;BME280;10469;42.720;23.252;2022-10-16T08:15:17;95741.22;;;25.42;42.10
20620;BME280;10469;42.720;23.252;2022-10-16T08:17:43;95739.47;;;25.83;39.89
20620;BME280;10469;42.720;23.252;2022-10-16T08:20:09;95743.03;;;25.47;40.42
20620;BME280;10469;42.720;23.252;2022-10-16T08:22:35;95739.81;;;27.32;39.50
20620;BME280;10469;42.720;23.252;2022-10-16T08:25:01;95748.03;;;24.53;41.98
20620;BME280;10469;42.720;23.252;2022-10-16T08:27:32;95730.25;;;26.41;39.46
20620;BME280;10469;42.720;23.252;2022-10-16T08:29:57;95732.94;;;26.23;39.18
20620;BME280;10469;42.720;23.252;2022-10-16T08:32:23;95738.97;;;26.65;38.89
20620;BME280;10469;42.720;23.252;2022-10-16T08:34:49;95739.97;;;25.85;38.70
20620;BME280;10469;42.720;23.252;2022-10-16T08:37:14;95730.28;;;25.28;39.08
20620;BME280;10469;42.720;23.252;2022-10-16T08:39:40;95729.69;;;25.04;40.34
20620;BME280;10469;42.720;23.252;2022-10-16T08:42:15;95734.75;;;25.24;39.44
20620;BME280;10469;42.720;23.252;2022-10-16T08:50:38;95738.47;;;25.42;39.36
20620;BME280;10469;42.720;23.252;2022-10-16T08:53:05;95747.81;;;26.54;36.43
20620;BME280;10469;42.720;23.252;2022-10-16T08:55:43;95742.91;;;26.73;35.54
20620;BME280;10469;42.720;23.252;2022-10-16T08:58:21;95740.34;;;27.94;33.70
20620;BME280;10469;42.720;23.252;2022-10-16T09:00:51;95751.75;;;26.61;34.77
20620;BME280;10469;42.720;23.252;2022-10-16T09:06:07;95741.94;;;24.70;38.21
20620;BME280;10469;42.720;23.252;2022-10-16T09:16:47;95725.59;;;26.81;33.72
20620;BME280;10469;42.720;23.252;2022-10-16T09:19:23;95729.28;;;27.16;33.96
20620;BME280;10469;42.720;23.252;2022-10-16T09:21:49;95732.19;;;27.63;31.76
20620;BME280;10469;42.720;23.252;2022-10-16T09:24:18;95734.81;;;27.42;31.80
20620;BME280;10469;42.720;23.252;2022-10-16T09:26:46;95730.44;;;25.46;34.99
20620;BME280;10469;42.720;23.252;2022-10-16T09:29:16;95729.88;;;27.05;33.28
20620;BME280;10469;42.720;23.252;2022-10-16T09:31:45;95735.03;;;25.37;36.18
20620;BME280;10469;42.720;23.252;2022-10-16T09:34:30;95726.47;;;23.87;38.62
20620;BME280;10469;42.720;23.252;2022-10-16T09:36:57;95732.66;;;26.34;34.38
20620;BME280;10469;42.720;23.252;2022-10-16T09:39:24;95742.88;;;25.43;35.17
20620;BME280;10469;42.720;23.252;2022-10-16T09:41:50;95732.06;;;25.83;35.12
20620;BME280;10469;42.720;23.252;2022-10-16T09:44:27;95729.69;;;25.32;36.38
20620;BME280;10469;42.720;23.252;2022-10-16T09:47:13;95724.63;;;26.77;34.04
20620;BME280;10469;42.720;23.252;2022-10-16T09:50:00;95725.81;;;25.33;34.59
20620;BME280;10469;42.720;23.252;2022-10-16T09:52:28;95725.34;;;26.29;33.83
20620;BME280;10469;42.720;23.252;2022-10-16T09:54:57;95713.63;;;28.42;30.84
20620;BME280;10469;42.720;23.252;2022-10-16T09:57:26;95707.41;;;27.55;30.95
20620;BME280;10469;42.720;23.252;2022-10-16T09:59:54;95717.19;;;28.34;31.05
20620;BME280;10469;42.720;23.252;2022-10-16T10:02:40;95723.66;;;24.80;34.72
20620;BME280;10469;42.720;23.252;2022-10-16T10:05:18;95721.06;;;25.83;34.17
20620;BME280;10469;42.720;23.252;2022-10-16T10:07:44;95701.06;;;27.71;32.15
20620;BME280;10469;42.720;23.252;2022-10-16T10:10:30;95716.00;;;27.79;31.29
20620;BME280;10469;42.720;23.252;2022-10-16T10:12:57;95713.97;;;26.93;32.75
20620;BME280;10469;42.720;23.252;2022-10-16T10:15:23;95705.50;;;27.46;32.11
20620;BME280;10469;42.720;23.252;2022-10-16T10:17:51;95699.63;;;27.57;31.74
20620;BME280;10469;42.720;23.252;2022-10-16T10:20:31;95706.75;;;27.32;32.47
20620;BME280;10469;42.720;23.252;2022-10-16T10:23:00;95694.28;;;27.86;31.85
20620;BME280;10469;42.720;23.252;2022-10-16T10:28:30;95693.31;;;25.71;33.59
20620;BME280;10469;42.720;23.252;2022-10-16T10:31:16;95697.06;;;27.51;31.82
20620;BME280;10469;42.720;23.252;2022-10-16T10:38:51;95674.81;;;26.96;32.83
20620;BME280;10469;42.720;23.252;2022-10-16T10:47:31;95672.38;;;26.06;34.16
20620;BME280;10469;42.720;23.252;2022-10-16T10:52:43;95674.38;;;28.36;31.29
20620;BME280;10469;42.720;23.252;2022-10-16T11:06:12;95654.72;;;28.76;29.96
20620;BME280;10469;42.720;23.252;2022-10-16T11:08:55;95647.38;;;26.56;32.98
20620;BME280;10469;42.720;23.252;2022-10-16T11:11:27;95630.63;;;27.36;32.09
20620;BME280;10469;42.720;23.252;2022-10-16T11:13:59;95660.63;;;25.61;34.01
20620;BME280;10469;42.720;23.252;2022-10-16T11:16:43;95650.72;;;26.44;32.58
20620;BME280;10469;42.720;23.252;2022-10-16T11:22:04;95628.69;;;27.10;31.76
20620;BME280;10469;42.720;23.252;2022-10-16T11:24:45;95644.75;;;26.51;31.91
20620;BME280;10469;42.720;23.252;2022-10-16T11:27:17;95645.66;;;27.04;30.67
20620;BME280;10469;42.720;23.252;2022-10-16T11:29:55;95629.59;;;25.83;33.18
20620;BME280;10469;42.720;23.252;2022-10-16T11:32:52;95637.63;;;24.62;35.01
20620;BME280;10469;42.720;23.252;2022-10-16T11:35:47;95644.94;;;25.02;34.59
20620;BME280;10469;42.720;23.252;2022-10-16T11:41:16;95645.41;;;25.86;33.06
20620;BME280;10469;42.720;23.252;2022-10-16T11:43:51;95628.78;;;26.79;32.20
20620;BME280;10469;42.720;23.252;2022-10-16T11:46:20;95620.34;;;26.18;30.64
20620;BME280;10469;42.720;23.252;2022-10-16T11:49:13;95643.22;;;27.02;31.04
20620;BME280;10469;42.720;23.252;2022-10-16T11:57:21;95617.28;;;25.58;32.67
20620;BME280;10469;42.720;23.252;2022-10-16T12:05:25;95638.13;;;24.64;33.13
20620;BME280;10469;42.720;23.252;2022-10-16T12:10:31;95637.72;;;23.88;32.41
20620;BME280;10469;42.720;23.252;2022-10-16T12:12:59;95621.78;;;23.90;32.79
20620;BME280;10469;42.720;23.252;2022-10-16T12:15:39;95638.38;;;24.40;33.19
20620;BME280;10469;42.720;23.252;2022-10-16T12:18:21;95646.88;;;23.32;34.58
20620;BME280;10469;42.720;23.252;2022-10-16T12:20:59;95639.38;;;23.37;35.33
20620;BME280;10469;42.720;23.252;2022-10-16T12:23:30;95644.81;;;23.23;36.23
20620;BME280;10469;42.720;23.252;2022-10-16T12:26:04;95637.22;;;23.01;36.70
20620;BME280;10469;42.720;23.252;2022-10-16T12:28:31;95644.19;;;23.26;36.99
20620;BME280;10469;42.720;23.252;2022-10-16T12:31:03;95631.72;;;22.21;38.56
20620;BME280;10469;42.720;23.252;2022-10-16T12:33:33;95643.19;;;21.36;39.80
20620;BME280;10469;42.720;23.252;2022-10-16T12:36:01;95639.50;;;21.56;39.02
20620;BME280;10469;42.720;23.252;2022-10-16T12:40:59;95647.34;;;20.34;39.74
20620;BME280;10469;42.720;23.252;2022-10-16T12:43:46;95642.06;;;20.58;41.43
20620;BME280;10469;42.720;23.252;2022-10-16T12:46:22;95645.16;;;20.36;42.48
20620;BME280;10469;42.720;23.252;2022-10-16T12:48:48;95645.38;;;19.75;44.76
20620;BME280;10469;42.720;23.252;2022-10-16T12:56:41;95639.09;;;19.79;45.44
20620;BME280;10469;42.720;23.252;2022-10-16T12:59:21;95634.81;;;19.22;46.79
20620;BME280;10469;42.720;23.252;2022-10-16T13:07:41;95658.38;;;18.66;50.54
20620;BME280;10469;42.720;23.252;2022-10-16T13:10:37;95652.16;;;18.75;50.80
20620;BME280;10469;42.720;23.252;2022-10-16T13:13:23;95641.13;;;18.35;51.02
20620;BME280;10469;42.720;23.252;2022-10-16T13:16:02;95644.91;;;18.23;51.10
20620;BME280;10469;42.720;23.252;2022-10-16T13:19:04;95645.22;;;18.32;52.30
20620;BME280;10469;42.720;23.252;2022-10-16T13:21:35;95656.91;;;18.33;50.79
20620;BME280;10469;42.720;23.252;2022-10-16T13:27:07;95650.72;;;18.52;42.14
20620;BME280;10469;42.720;23.252;2022-10-16T13:29:34;95640.69;;;18.58;40.21
20620;BME280;10469;42.720;23.252;2022-10-16T13:32:01;95644.78;;;18.66;40.97
20620;BME280;10469;42.720;23.252;2022-10-16T13:34:32;95657.19;;;18.41;42.32
20620;BME280;10469;42.720;23.252;2022-10-16T13:36:58;95645.84;;;18.65;41.80
20620;BME280;10469;42.720;23.252;2022-10-16T13:39:28;95661.84;;;18.56;44.78
20620;BME280;10469;42.720;23.252;2022-10-16T13:42:44;95656.25;;;18.05;46.86
20620;BME280;10469;42.720;23.252;2022-10-16T13:44:54;95653.81;;;18.09;47.77
20620;BME280;10469;42.720;23.252;2022-10-16T13:47:28;95655.97;;;18.01;48.78
20620;BME280;10469;42.720;23.252;2022-10-16T13:50:05;95673.88;;;18.02;49.00
20620;BME280;10469;42.720;23.252;2022-10-16T13:52:32;95658.16;;;18.10;47.30
20620;BME280;10469;42.720;23.252;2022-10-16T13:54:57;95643.53;;;18.21;45.75
20620;BME280;10469;42.720;23.252;2022-10-16T13:57:24;95638.69;;;18.33;45.42
20620;BME280;10469;42.720;23.252;2022-10-16T13:59:50;95655.50;;;18.25;44.89
20620;BME280;10469;42.720;23.252;2022-10-16T14:02:34;95656.31;;;18.25;44.54
20620;BME280;10469;42.720;23.252;2022-10-16T14:05:03;95654.88;;;18.08;44.08
20620;BME280;10469;42.720;23.252;2022-10-16T14:07:32;95671.75;;;18.15;44.47
20620;BME280;10469;42.720;23.252;2022-10-16T14:10:05;95667.94;;;18.11;44.70
20620;BME280;10469;42.720;23.252;2022-10-16T14:12:32;95676.38;;;18.14;45.02
20620;BME280;10469;42.720;23.252;2022-10-16T14:14:59;95674.78;;;18.23;45.27
20620;BME280;10469;42.720;23.252;2022-10-16T14:17:33;95658.91;;;18.00;45.00
20620;BME280;10469;42.720;23.252;2022-10-16T14:20:04;95662.19;;;18.02;45.48
20620;BME280;10469;42.720;23.252;2022-10-16T14:22:36;95645.84;;;17.92;46.08
20620;BME280;10469;42.720;23.252;2022-10-16T14:27:55;95667.09;;;18.05;45.32
20620;BME280;10469;42.720;23.252;2022-10-16T14:30:22;95672.53;;;18.05;45.40
20620;BME280;10469;42.720;23.252;2022-10-16T14:32:55;95676.75;;;17.86;44.92
20620;BME280;10469;42.720;23.252;2022-10-16T14:35:31;95674.25;;;17.74;45.50
20620;BME280;10469;42.720;23.252;2022-10-16T14:37:59;95669.38;;;17.76;45.71
20620;BME280;10469;42.720;23.252;2022-10-16T14:40:28;95681.22;;;17.70;45.62
20620;BME280;10469;42.720;23.252;2022-10-16T14:42:54;95675.38;;;17.41;46.48